createdAt,value
2022-12-25T00:01:18.818Z,7.15
2022-12-25T00:03:46.060Z,6.95
2022-12-25T00:06:13.111Z,7.55
2022-12-25T00:08:40.919Z,6.88
2022-12-25T00:11:12.344Z,7.13
2022-12-25T00:13:40.135Z,6.82
2022-12-25T00:16:14.753Z,7.38
2022-12-25T00:18:41.799Z,7.22
2022-12-25T00:21:08.714Z,7.65
2022-12-25T00:23:35.986Z,7.03
2022-12-25T00:26:07.501Z,7.60
2022-12-25T00:28:36.153Z,8.00
2022-12-25T00:31:12.033Z,7.55
2022-12-25T00:33:40.533Z,7.38
2022-12-25T00:36:08.539Z,7.95
2022-12-25T00:38:37.511Z,8.13
2022-12-25T00:41:09.541Z,8.27
2022-12-25T00:43:38.456Z,7.65
2022-12-25T00:46:06.704Z,8.10
2022-12-25T00:48:35.607Z,8.23
2022-12-25T00:51:06.057Z,7.55
2022-12-25T00:53:33.315Z,8.05
2022-12-25T00:56:03.335Z,7.80
2022-12-25T00:58:32.696Z,8.15
2022-12-25T01:00:59.666Z,7.85
2022-12-25T01:03:27.190Z,8.07
2022-12-25T01:06:01.479Z,8.38
2022-12-25T01:08:30.953Z,8.13
2022-12-25T01:11:00.772Z,7.43
2022-12-25T01:13:28.918Z,7.88
2022-12-25T01:15:55.841Z,7.93
2022-12-25T01:18:24.861Z,8.82
2022-12-25T01:20:52.025Z,7.85
2022-12-25T01:23:19.076Z,8.45
2022-12-25T01:25:45.941Z,7.57
2022-12-25T01:28:13.459Z,8.82
2022-12-25T01:30:40.372Z,8.63
2022-12-25T01:33:07.304Z,7.75
2022-12-25T01:35:34.106Z,8.50
2022-12-25T01:38:01.200Z,8.48
2022-12-25T01:40:28.081Z,8.45
2022-12-25T01:42:55.056Z,8.07
2022-12-25T01:45:37.377Z,8.45
2022-12-25T01:48:14.584Z,7.35
2022-12-25T01:50:45.651Z,8.13
2022-12-25T01:53:12.747Z,8.20
2022-12-25T01:55:41.534Z,8.50
2022-12-25T01:58:08.943Z,8.20
2022-12-25T02:00:35.992Z,8.10
2022-12-25T02:03:03.916Z,8.20
2022-12-25T02:05:33.162Z,9.10
2022-12-25T02:08:04.153Z,10.10
2022-12-25T02:10:31.156Z,9.40
2022-12-25T02:12:58.706Z,9.52
2022-12-25T02:15:33.636Z,10.10
2022-12-25T02:18:22.582Z,11.13
2022-12-25T02:21:07.592Z,10.95
2022-12-25T02:24:02.456Z,11.40
2022-12-25T02:26:58.309Z,11.82
2022-12-25T02:29:37.669Z,12.40
2022-12-25T02:32:16.012Z,13.68
2022-12-25T02:35:14.507Z,13.68
2022-12-25T02:37:45.048Z,14.38
2022-12-25T02:40:26.684Z,14.20
2022-12-25T02:43:20.311Z,15.88
2022-12-25T02:46:14.916Z,15.98
2022-12-25T02:49:06.996Z,16.90
2022-12-25T02:51:57.406Z,17.52
2022-12-25T02:54:54.773Z,17.27
2022-12-25T02:57:45.294Z,16.45
2022-12-25T03:00:31.807Z,18.45
2022-12-25T03:03:19.551Z,18.13
2022-12-25T03:06:06.099Z,18.42
2022-12-25T03:08:42.809Z,19.13
2022-12-25T03:11:30.283Z,19.48
2022-12-25T03:14:27.035Z,19.55
2022-12-25T03:16:59.536Z,20.52
2022-12-25T03:20:06.406Z,20.73
2022-12-25T03:25:38.159Z,22.02
2022-12-25T03:28:06.006Z,23.13
2022-12-25T03:31:14.115Z,23.15
2022-12-25T03:34:33.643Z,24.80
2022-12-25T03:37:32.476Z,27.33
2022-12-25T03:40:29.074Z,25.83
2022-12-25T03:43:28.750Z,27.70
2022-12-25T03:46:05.378Z,27.92
2022-12-25T03:48:55.052Z,28.30
2022-12-25T03:51:48.662Z,27.95
2022-12-25T03:54:37.582Z,28.13
2022-12-25T03:57:23.650Z,27.15
2022-12-25T04:00:09.075Z,27.25
2022-12-25T04:02:55.744Z,26.90
2022-12-25T04:05:41.873Z,24.73
2022-12-25T04:08:27.437Z,24.98
2022-12-25T04:11:13.078Z,24.42
2022-12-25T04:13:58.544Z,23.48
2022-12-25T04:16:44.565Z,23.13
2022-12-25T04:19:29.909Z,22.67
2022-12-25T04:22:32.094Z,23.88
2022-12-25T04:25:17.701Z,22.83
2022-12-25T04:28:03.101Z,21.17
2022-12-25T04:30:48.612Z,21.23
2022-12-25T04:33:34.042Z,20.42
2022-12-25T04:36:09.696Z,20.27
2022-12-25T04:38:37.217Z,20.10
2022-12-25T04:41:04.997Z,21.60
2022-12-25T04:43:32.171Z,19.50
2022-12-25T04:46:01.115Z,19.63
2022-12-25T04:48:31.855Z,20.42
2022-12-25T04:50:58.859Z,18.75
2022-12-25T04:53:25.827Z,20.25
2022-12-25T04:56:01.460Z,19.50
2022-12-25T04:58:28.433Z,20.23
2022-12-25T05:00:58.529Z,18.95
2022-12-25T05:03:25.498Z,18.77
2022-12-25T05:05:52.371Z,19.02
2022-12-25T05:08:19.305Z,18.92
2022-12-25T05:10:46.208Z,19.38
2022-12-25T05:13:13.179Z,18.30
2022-12-25T05:15:40.989Z,17.52
2022-12-25T05:18:07.958Z,19.20
2022-12-25T05:20:39.940Z,18.05
2022-12-25T05:23:09.280Z,18.58
2022-12-25T05:25:39.988Z,17.60
2022-12-25T05:28:07.567Z,17.73
2022-12-25T05:30:34.939Z,16.70
2022-12-25T05:33:02.740Z,17.35
2022-12-25T05:35:29.534Z,16.85
2022-12-25T05:37:56.566Z,16.17
2022-12-25T05:40:23.774Z,16.92
2022-12-25T05:42:50.652Z,16.00
2022-12-25T05:45:17.514Z,15.77
2022-12-25T05:47:44.453Z,15.43
2022-12-25T05:50:11.386Z,15.40
2022-12-25T05:52:38.344Z,15.70
2022-12-25T05:55:05.748Z,15.63
2022-12-25T05:57:32.736Z,15.18
2022-12-25T05:59:59.825Z,15.13
2022-12-25T06:02:27.711Z,15.90
2022-12-25T06:04:54.675Z,15.27
2022-12-25T06:07:22.864Z,16.90
2022-12-25T06:09:49.751Z,16.33
2022-12-25T06:12:16.683Z,15.25
2022-12-25T06:14:43.530Z,15.27
2022-12-25T06:17:10.625Z,14.98
2022-12-25T06:19:37.559Z,16.20
2022-12-25T06:22:04.490Z,14.68
2022-12-25T06:24:31.455Z,14.68
2022-12-25T06:26:58.396Z,15.30
2022-12-25T06:29:25.242Z,16.38
2022-12-25T06:31:57.226Z,14.48
2022-12-25T06:34:24.499Z,14.40
2022-12-25T06:36:51.456Z,14.10
2022-12-25T06:39:18.636Z,13.90
2022-12-25T06:41:45.490Z,14.63
2022-12-25T06:44:12.557Z,13.88
2022-12-25T06:46:39.525Z,13.32
2022-12-25T06:49:06.405Z,14.20
2022-12-25T06:51:33.739Z,15.05
2022-12-25T06:54:04.268Z,14.25
2022-12-25T06:56:32.190Z,14.32
2022-12-25T06:59:01.914Z,13.63
2022-12-25T07:01:35.358Z,14.25
2022-12-25T07:04:11.060Z,13.35
2022-12-25T07:06:38.138Z,13.88
2022-12-25T07:09:04.953Z,14.02
2022-12-25T07:11:31.929Z,14.45
2022-12-25T07:13:58.817Z,14.18
2022-12-25T07:16:25.819Z,14.70
2022-12-25T07:18:53.023Z,13.38
2022-12-25T07:21:21.640Z,14.10
2022-12-25T07:23:50.313Z,14.13
2022-12-25T07:26:20.054Z,14.25
2022-12-25T07:28:46.973Z,14.43
2022-12-25T07:31:16.621Z,13.27
2022-12-25T07:33:43.846Z,15.15
2022-12-25T07:36:12.834Z,14.20
2022-12-25T07:38:41.556Z,13.35
2022-12-25T07:41:10.225Z,13.68
2022-12-25T07:43:37.605Z,14.10
2022-12-25T07:46:05.552Z,13.93
2022-12-25T07:48:32.628Z,14.27
2022-12-25T07:51:01.737Z,12.77
2022-12-25T07:53:28.834Z,13.52
2022-12-25T07:56:08.185Z,14.27
2022-12-25T07:58:35.502Z,13.52
2022-12-25T08:01:08.845Z,13.93
2022-12-25T08:03:36.198Z,13.68
2022-12-25T08:06:08.189Z,13.20
2022-12-25T08:08:36.058Z,13.65
2022-12-25T08:11:03.153Z,14.70
2022-12-25T08:13:34.386Z,14.02
2022-12-25T08:16:03.863Z,13.68
2022-12-25T08:18:32.228Z,13.25
2022-12-25T08:21:17.438Z,14.15
2022-12-25T08:23:45.887Z,13.75
2022-12-25T08:26:15.681Z,13.07
2022-12-25T08:28:43.221Z,13.32
2022-12-25T08:31:25.437Z,14.25
2022-12-25T08:33:54.804Z,13.38
2022-12-25T08:36:22.456Z,13.88
2022-12-25T08:38:49.933Z,14.35
2022-12-25T08:41:17.092Z,15.13
2022-12-25T08:43:44.355Z,13.70
2022-12-25T08:46:11.715Z,14.18
2022-12-25T08:48:42.782Z,14.68
2022-12-25T08:51:16.493Z,14.35
2022-12-25T08:53:45.038Z,14.60
2022-12-25T08:56:12.373Z,14.13
2022-12-25T08:58:39.391Z,13.60
2022-12-25T09:01:06.808Z,14.40
2022-12-25T09:03:34.838Z,13.77
2022-12-25T09:06:06.862Z,13.18
2022-12-25T09:08:34.554Z,14.25
2022-12-25T09:11:09.756Z,13.10
2022-12-25T09:16:09.007Z,13.18
2022-12-25T09:18:36.117Z,12.05
2022-12-25T09:21:06.815Z,13.65
2022-12-25T09:23:34.434Z,13.70
2022-12-25T09:26:02.770Z,12.93
2022-12-25T09:28:30.325Z,13.30
2022-12-25T09:30:57.257Z,14.05
2022-12-25T09:33:24.735Z,13.30
2022-12-25T09:36:00.707Z,13.63
2022-12-25T09:38:28.510Z,13.35
2022-12-25T09:40:59.657Z,13.95
2022-12-25T09:43:28.842Z,13.32
2022-12-25T09:45:57.316Z,13.63
2022-12-25T09:48:25.277Z,13.27
2022-12-25T09:51:00.428Z,12.88
2022-12-25T09:53:32.607Z,14.05
2022-12-25T09:56:12.603Z,12.80
2022-12-25T09:58:39.936Z,13.55
2022-12-25T10:01:12.960Z,13.27
2022-12-25T10:03:52.087Z,13.82
2022-12-25T10:06:56.182Z,13.38
2022-12-25T10:09:50.965Z,14.32
2022-12-25T10:12:24.028Z,14.40
2022-12-25T10:15:29.566Z,15.02
2022-12-25T10:18:17.929Z,14.27
2022-12-25T10:20:51.453Z,14.98
2022-12-25T10:23:23.872Z,14.43
2022-12-25T10:25:52.573Z,14.32
2022-12-25T10:28:43.976Z,15.48
2022-12-25T10:31:23.438Z,15.07
2022-12-25T10:33:53.131Z,15.60
2022-12-25T10:36:26.294Z,16.98
2022-12-25T10:38:53.734Z,15.98
2022-12-25T10:41:35.550Z,16.17
2022-12-25T10:44:16.323Z,16.08
2022-12-25T10:46:49.167Z,17.25
2022-12-25T10:49:17.792Z,17.15
2022-12-25T10:51:44.727Z,16.50
2022-12-25T10:54:20.664Z,17.17
2022-12-25T10:56:56.664Z,18.60
2022-12-25T10:59:26.426Z,19.10
2022-12-25T11:01:55.580Z,18.02
2022-12-25T11:04:28.782Z,19.05
2022-12-25T11:07:05.239Z,18.70
2022-12-25T11:09:33.245Z,22.63
2022-12-25T11:12:00.545Z,18.55
2022-12-25T11:14:29.148Z,17.25
2022-12-25T11:16:56.180Z,17.55
2022-12-25T11:19:29.268Z,16.73
2022-12-25T11:21:59.522Z,16.20
2022-12-25T11:24:29.330Z,15.48
2022-12-25T11:26:59.167Z,15.27
2022-12-25T11:29:49.001Z,14.93
2022-12-25T11:32:32.672Z,14.88
2022-12-25T11:35:01.049Z,14.57
2022-12-25T11:37:38.354Z,14.50
2022-12-25T11:40:06.751Z,14.90
2022-12-25T11:42:37.147Z,13.70
2022-12-25T11:45:21.016Z,14.23
2022-12-25T11:48:20.514Z,13.52
2022-12-25T11:50:54.098Z,14.48
2022-12-25T11:53:29.435Z,13.75
2022-12-25T11:56:02.079Z,13.68
2022-12-25T11:58:41.853Z,13.10
2022-12-25T12:01:15.943Z,14.02
2022-12-25T12:03:43.998Z,13.40
2022-12-25T12:06:39.839Z,13.63
2022-12-25T12:09:25.637Z,12.00
2022-12-25T12:12:27.185Z,13.20
2022-12-25T12:15:19.237Z,11.60
2022-12-25T12:17:46.388Z,12.77
2022-12-25T12:20:14.419Z,12.63
2022-12-25T12:22:50.714Z,12.25
2022-12-25T12:25:18.803Z,12.65
2022-12-25T12:27:45.778Z,12.88
2022-12-25T12:30:42.103Z,11.65
2022-12-25T12:35:45.654Z,11.95
2022-12-25T12:38:19.959Z,11.50
2022-12-25T12:40:55.667Z,12.43
2022-12-25T12:43:45.302Z,13.07
2022-12-25T12:46:30.558Z,13.23
2022-12-25T12:49:22.015Z,14.40
2022-12-25T12:51:49.317Z,13.63
2022-12-25T12:54:23.619Z,15.30
2022-12-25T12:57:05.819Z,15.10
2022-12-25T12:59:44.327Z,17.83
2022-12-25T13:02:50.251Z,15.77
2022-12-25T13:05:42.621Z,17.33
2022-12-25T13:08:12.743Z,17.80
2022-12-25T13:10:48.471Z,21.20
2022-12-25T13:13:26.485Z,17.42
2022-12-25T13:15:53.849Z,12.90
2022-12-25T13:18:20.833Z,14.02
2022-12-25T13:21:02.037Z,13.88
2022-12-25T13:23:28.979Z,13.98
2022-12-25T13:25:58.391Z,14.98
2022-12-25T13:28:33.516Z,13.00
2022-12-25T13:31:12.795Z,12.90
2022-12-25T13:33:41.171Z,12.98
2022-12-25T13:36:13.715Z,12.52
2022-12-25T13:38:49.321Z,11.98
2022-12-25T13:41:38.532Z,11.57
2022-12-25T13:44:46.667Z,13.02
2022-12-25T13:47:30.139Z,12.30
2022-12-25T13:49:58.699Z,13.07
2022-12-25T13:52:35.009Z,13.93
2022-12-25T13:55:13.095Z,14.20
2022-12-25T13:57:59.193Z,13.77
2022-12-25T14:00:36.532Z,14.18
2022-12-25T14:03:05.485Z,13.55
2022-12-25T14:05:42.155Z,13.20
2022-12-25T14:08:16.919Z,13.65
2022-12-25T14:10:48.303Z,12.65
2022-12-25T14:13:16.249Z,13.30
2022-12-25T14:15:45.375Z,15.05
2022-12-25T14:18:17.289Z,13.48
2022-12-25T14:21:07.238Z,13.80
2022-12-25T14:23:45.192Z,13.23
2022-12-25T14:26:22.195Z,13.82
2022-12-25T14:28:55.268Z,16.08
2022-12-25T14:31:24.271Z,16.27
2022-12-25T14:33:52.626Z,13.35
2022-12-25T14:36:19.907Z,15.38
2022-12-25T14:38:59.857Z,14.23
2022-12-25T14:41:34.185Z,15.25
2022-12-25T14:44:04.170Z,15.98
2022-12-25T14:46:32.612Z,17.70
2022-12-25T14:49:25.296Z,15.43
2022-12-25T14:51:52.292Z,14.05
2022-12-25T14:54:22.312Z,17.15
2022-12-25T14:56:51.955Z,15.60
2022-12-25T14:59:26.052Z,17.20
2022-12-25T15:02:02.415Z,15.73
2022-12-25T15:04:29.755Z,15.38
2022-12-25T15:07:07.099Z,14.02
2022-12-25T15:09:35.942Z,13.35
2022-12-25T15:12:02.887Z,14.25
2022-12-25T15:14:31.527Z,15.02
2022-12-25T15:17:01.277Z,16.50
2022-12-25T15:19:37.281Z,16.90
2022-12-25T15:22:05.263Z,15.43
2022-12-25T15:24:32.177Z,16.15
2022-12-25T15:27:00.561Z,16.40
2022-12-25T15:30:00.184Z,15.05
2022-12-25T15:32:21.338Z,15.65
2022-12-25T15:34:49.866Z,15.75
2022-12-25T15:37:18.401Z,15.35
2022-12-25T15:39:45.822Z,15.02
2022-12-25T15:42:19.608Z,15.38
2022-12-25T15:44:46.685Z,14.95
2022-12-25T15:47:15.506Z,16.52
2022-12-25T15:49:42.687Z,17.02
2022-12-25T15:52:14.199Z,18.00
2022-12-25T15:54:41.165Z,18.02
2022-12-25T15:57:16.755Z,19.08
2022-12-25T15:59:43.677Z,21.60
2022-12-25T16:02:17.132Z,22.35
2022-12-25T16:04:44.466Z,20.27
2022-12-25T16:07:20.515Z,20.42
2022-12-25T16:09:47.413Z,18.27
2022-12-25T16:12:14.411Z,19.33
2022-12-25T16:14:41.895Z,17.63
2022-12-25T16:17:13.341Z,18.17
2022-12-25T16:19:40.279Z,19.85
2022-12-25T16:22:39.728Z,18.98
2022-12-25T16:25:15.471Z,20.70
2022-12-25T16:27:42.893Z,22.15
2022-12-25T16:30:11.313Z,20.27
2022-12-25T16:32:38.302Z,18.52
2022-12-25T16:35:05.932Z,19.75
2022-12-25T16:37:32.854Z,21.33
2022-12-25T16:39:59.723Z,21.40
2022-12-25T16:42:26.986Z,25.33
2022-12-25T16:44:54.256Z,24.13
2022-12-25T16:47:21.247Z,25.98
2022-12-25T16:49:48.133Z,27.00
2022-12-25T16:52:15.035Z,27.17
2022-12-25T16:54:41.981Z,33.08
2022-12-25T16:57:08.962Z,26.33
2022-12-25T16:59:35.949Z,26.55
2022-12-25T17:02:03.038Z,24.88
2022-12-25T17:04:30.213Z,26.75
2022-12-25T17:06:57.157Z,27.35
2022-12-25T17:09:24.749Z,24.60
2022-12-25T17:11:51.810Z,26.30
2022-12-25T17:14:18.680Z,27.05
2022-12-25T17:16:45.927Z,27.85
2022-12-25T17:19:19.499Z,28.17
2022-12-25T17:21:47.282Z,28.83
2022-12-25T17:24:15.141Z,29.75
2022-12-25T17:26:43.908Z,28.27
2022-12-25T17:29:14.651Z,27.00
2022-12-25T17:31:45.648Z,29.35
2022-12-25T17:34:14.546Z,29.85
2022-12-25T17:36:41.818Z,28.05
2022-12-25T17:39:10.501Z,29.35
2022-12-25T17:41:37.675Z,30.02
2022-12-25T17:44:04.885Z,29.75
2022-12-25T17:46:32.574Z,28.80
2022-12-25T17:49:01.048Z,29.25
2022-12-25T17:51:29.820Z,30.15
2022-12-25T17:54:00.207Z,32.50
2022-12-25T17:56:27.139Z,37.20
2022-12-25T17:58:56.735Z,38.10
2022-12-25T18:01:25.245Z,34.58
2022-12-25T18:03:52.408Z,37.10
2022-12-25T18:06:22.485Z,30.75
2022-12-25T18:08:50.004Z,32.40
2022-12-25T18:11:27.588Z,39.35
2022-12-25T18:13:55.415Z,30.38
2022-12-25T18:16:23.921Z,25.33
2022-12-25T18:18:52.901Z,25.08
2022-12-25T18:21:23.381Z,25.30
2022-12-25T18:23:50.573Z,23.65
2022-12-25T18:26:17.841Z,23.27
2022-12-25T18:28:44.818Z,22.33
2022-12-25T18:31:15.410Z,22.80
2022-12-25T18:33:42.781Z,21.77
2022-12-25T18:36:12.255Z,22.98
2022-12-25T18:38:39.276Z,23.52
2022-12-25T18:41:08.176Z,23.55
2022-12-25T18:43:52.813Z,23.88
2022-12-25T18:46:24.695Z,26.48
2022-12-25T18:48:52.999Z,25.55
2022-12-25T18:51:20.028Z,24.33
2022-12-25T18:53:47.078Z,25.75
2022-12-25T18:56:17.339Z,25.35
2022-12-25T18:58:45.391Z,25.88
2022-12-25T19:01:16.459Z,26.17
2022-12-25T19:03:44.507Z,27.02
2022-12-25T19:06:23.621Z,26.90
2022-12-25T19:08:50.715Z,26.83
2022-12-25T19:11:18.554Z,28.00
2022-12-25T19:13:46.254Z,25.95
2022-12-25T19:16:13.999Z,25.83
2022-12-25T19:18:41.244Z,28.33
2022-12-25T19:21:09.371Z,26.67
2022-12-25T19:23:38.006Z,24.75
2022-12-25T19:26:06.866Z,26.60
2022-12-25T19:28:34.157Z,26.05
2022-12-25T19:31:01.839Z,26.67
2022-12-25T19:33:31.638Z,28.63
2022-12-25T19:36:07.604Z,27.60
2022-12-25T19:38:35.019Z,28.33
2022-12-25T19:41:13.811Z,27.70
2022-12-25T19:43:42.401Z,31.77
2022-12-25T19:46:17.974Z,31.45
2022-12-25T19:48:44.985Z,29.58
2022-12-25T19:51:24.157Z,29.52
2022-12-25T19:53:52.265Z,31.08
2022-12-25T19:56:19.455Z,30.33
2022-12-25T19:58:46.394Z,30.17
2022-12-25T20:01:18.922Z,30.67
2022-12-25T20:03:47.800Z,29.35
2022-12-25T20:06:22.662Z,30.35
2022-12-25T20:08:55.261Z,30.30
2022-12-25T20:11:23.384Z,29.58
2022-12-25T20:13:50.705Z,29.60
2022-12-25T20:16:18.224Z,27.65
2022-12-25T20:18:45.269Z,29.65
2022-12-25T20:21:17.862Z,28.20
2022-12-25T20:23:46.442Z,29.80
2022-12-25T20:26:14.040Z,28.45
2022-12-25T20:28:41.993Z,27.80
2022-12-25T20:31:29.596Z,30.13
2022-12-25T20:33:58.782Z,28.95
2022-12-25T20:36:28.534Z,29.98
2022-12-25T20:38:59.623Z,27.77
2022-12-25T20:41:28.443Z,27.92
2022-12-25T20:43:56.900Z,27.85
2022-12-25T20:46:25.018Z,26.50
2022-12-25T20:48:52.835Z,26.92
2022-12-25T20:51:22.901Z,25.35
2022-12-25T20:53:49.970Z,26.35
2022-12-25T20:56:18.698Z,25.65
2022-12-25T20:58:45.755Z,26.92
2022-12-25T21:01:15.730Z,26.50
2022-12-25T21:03:43.651Z,25.95
2022-12-25T21:06:11.078Z,26.27
2022-12-25T21:08:39.155Z,26.10
2022-12-25T21:11:07.323Z,27.15
2022-12-25T21:13:37.757Z,25.98
2022-12-25T21:16:06.321Z,26.77
2022-12-25T21:18:33.590Z,27.48
2022-12-25T21:21:04.755Z,27.17
2022-12-25T21:23:33.205Z,25.27
2022-12-25T21:26:00.162Z,26.23
2022-12-25T21:28:29.225Z,25.23
2022-12-25T21:31:05.107Z,24.35
2022-12-25T21:33:51.175Z,25.60
2022-12-25T21:36:21.098Z,24.60
2022-12-25T21:38:51.555Z,26.67
2022-12-25T21:41:18.533Z,25.67
2022-12-25T21:43:46.097Z,25.58
2022-12-25T21:46:14.790Z,23.70
2022-12-25T21:48:42.785Z,23.13
2022-12-25T21:51:36.828Z,23.00
2022-12-25T21:54:05.041Z,23.52
2022-12-25T21:56:38.338Z,22.45
2022-12-25T21:59:09.973Z,23.10
2022-12-25T22:01:37.871Z,23.63
2022-12-25T22:04:07.470Z,21.58
2022-12-25T22:06:53.987Z,22.23
2022-12-25T22:09:21.757Z,23.42
2022-12-25T22:12:07.938Z,24.23
2022-12-25T22:14:54.291Z,23.23
2022-12-25T22:17:50.736Z,22.02
2022-12-25T22:20:38.313Z,22.23
2022-12-25T22:23:05.578Z,19.30
2022-12-25T22:25:32.444Z,19.10
2022-12-25T22:27:59.822Z,18.33
2022-12-25T22:30:28.674Z,18.98
2022-12-25T22:32:56.503Z,17.95
2022-12-25T22:35:24.224Z,18.77
2022-12-25T22:37:51.417Z,18.13
2022-12-25T22:40:19.791Z,17.63
2022-12-25T22:42:47.342Z,16.20
2022-12-25T22:45:14.397Z,17.75
2022-12-25T22:47:41.830Z,16.63
2022-12-25T22:50:09.867Z,17.35
2022-12-25T22:52:37.536Z,17.17
2022-12-25T22:55:07.589Z,16.02
2022-12-25T22:57:34.946Z,17.08
2022-12-25T23:00:02.207Z,15.18
2022-12-25T23:02:29.457Z,17.08
2022-12-25T23:04:56.521Z,16.60
2022-12-25T23:07:23.465Z,16.20
2022-12-25T23:09:50.289Z,16.88
2022-12-25T23:12:35.798Z,16.33
2022-12-25T23:15:02.770Z,15.57
2022-12-25T23:17:48.267Z,15.07
2022-12-25T23:20:34.214Z,14.93
2022-12-25T23:26:16.061Z,14.65
2022-12-25T23:29:02.551Z,14.25
2022-12-25T23:34:02.071Z,13.93
2022-12-25T23:36:29.215Z,13.40
2022-12-25T23:38:56.228Z,13.27
2022-12-25T23:41:23.144Z,13.63
2022-12-25T23:43:50.610Z,13.85
2022-12-25T23:46:17.527Z,13.32
2022-12-25T23:48:44.489Z,12.60
2022-12-25T23:51:11.589Z,11.85
2022-12-25T23:53:38.490Z,11.82
2022-12-25T23:56:05.730Z,11.95
2022-12-25T23:58:33.723Z,12.15
